aviador You're here:

OISR Decoded Metar

LAMERD in IRAN
Report Time2018-01-16 07:00:00
UTC Time2018-01-16 07:23:29
Flight Rules mvfr MVFR
Wind300° at 16 kt
W.Decomp.*RWY 29: 15.8 kt HW 2.2 kt RCW
W.Rank300° ranks 2
Current wind is above 300° avg. (8.0)
Visibility5000 m
Phenomena:Sand
Clouds:N/A
Expected CloudBase > 7,200 ft AGL from Temp-Dew spread
CeilingNone
Temp19°C (ISA +7)
Dew Point01°C (30% RH)
AAT11.4°C
QNH1018 hPa
Density Alt2,041 ft
Elevation1,337 ft
Report Wrong Elevation
Raw Report
METAR OISR 160700Z 30016KT 5000 SA NSC 19/01 Q1018=

Extra information for OISR:More info

Metar Taf Metar & Taf Last 4 Metars F.Rules Stats Wind Profile Meteogram Temp Stats Airport Information Weather charts Add Link Nearby VenuesMetar ALERT Operation Metar Decoded Social comments